createdAt,value
2022-11-05T00:00:22.276Z,78.93
2022-11-05T00:03:27.539Z,78.97
2022-11-05T00:06:15.707Z,79.07
2022-11-05T00:09:02.986Z,79.15
2022-11-05T00:11:49.992Z,79.48
2022-11-05T00:14:36.908Z,79.49
2022-11-05T00:17:05.701Z,79.89
2022-11-05T00:19:34.351Z,80.26
2022-11-05T00:22:22.002Z,80.09
2022-11-05T00:25:08.797Z,80.38
2022-11-05T00:27:37.672Z,80.53
2022-11-05T00:30:09.279Z,80.44
2022-11-05T00:32:39.184Z,80.52
2022-11-05T00:35:10.945Z,80.35
2022-11-05T00:37:39.923Z,80.52
2022-11-05T00:40:12.356Z,80.54
2022-11-05T00:43:01.315Z,80.34
2022-11-05T00:45:32.261Z,80.67
2022-11-05T00:48:19.478Z,80.60
2022-11-05T00:50:49.044Z,80.89
2022-11-05T00:53:17.664Z,80.85
2022-11-05T00:55:47.577Z,80.95
2022-11-05T00:58:21.107Z,80.81
2022-11-05T01:00:54.290Z,80.90
2022-11-05T01:03:25.514Z,80.89
2022-11-05T01:05:56.353Z,81.11
2022-11-05T01:08:27.228Z,81.13
2022-11-05T01:10:58.756Z,80.88
2022-11-05T01:13:29.519Z,80.78
2022-11-05T01:16:04.516Z,81.03
2022-11-05T01:18:33.144Z,81.11
2022-11-05T01:21:13.600Z,81.17
2022-11-05T01:23:42.333Z,81.14
2022-11-05T01:26:10.868Z,81.17
2022-11-05T01:28:39.421Z,80.81
2022-11-05T01:31:08.060Z,80.97
2022-11-05T01:33:36.836Z,80.87
2022-11-05T01:36:06.962Z,81.01
2022-11-05T01:38:35.707Z,80.86
2022-11-05T01:41:04.456Z,80.95
2022-11-05T01:43:49.029Z,80.96
2022-11-05T01:46:21.563Z,81.12
2022-11-05T01:49:00.043Z,81.11
2022-11-05T01:51:31.438Z,81.27
2022-11-05T01:54:03.096Z,81.46
2022-11-05T01:56:37.362Z,81.52
2022-11-05T01:59:10.320Z,81.63
2022-11-05T02:01:39.553Z,81.65
2022-11-05T02:04:11.375Z,81.85
2022-11-05T02:06:45.483Z,81.95
2022-11-05T02:09:20.516Z,82.05
2022-11-05T02:11:51.259Z,81.91
2022-11-05T02:14:20.353Z,81.67
2022-11-05T02:16:58.189Z,81.34
2022-11-05T02:19:56.058Z,81.95
2022-11-05T02:23:03.111Z,82.13
2022-11-05T02:25:57.819Z,82.35
2022-11-05T02:28:49.329Z,82.17
2022-11-05T02:31:28.755Z,82.39
2022-11-05T02:34:00.930Z,82.82
2022-11-05T02:36:39.723Z,82.86
2022-11-05T02:39:19.084Z,83.21
2022-11-05T02:42:05.039Z,83.19
2022-11-05T02:44:45.378Z,83.57
2022-11-05T02:47:28.170Z,83.45
2022-11-05T02:50:13.228Z,83.72
2022-11-05T02:52:50.164Z,84.02
2022-11-05T02:55:27.246Z,83.91
2022-11-05T02:57:55.745Z,83.94
2022-11-05T03:00:43.812Z,84.12
2022-11-05T03:03:17.592Z,84.34
2022-11-05T03:05:58.139Z,84.41
2022-11-05T03:08:37.632Z,84.34
2022-11-05T03:11:14.066Z,84.54
2022-11-05T03:13:53.652Z,84.47
2022-11-05T03:16:31.487Z,84.69
2022-11-05T03:19:07.699Z,85.24
2022-11-05T03:21:45.200Z,85.27
2022-11-05T03:24:18.745Z,85.62
2022-11-05T03:26:55.425Z,85.67
2022-11-05T03:29:30.133Z,85.31
2022-11-05T03:32:01.279Z,85.58
2022-11-05T03:34:34.583Z,85.64
2022-11-05T03:37:04.471Z,85.89
2022-11-05T03:39:38.089Z,85.69
2022-11-05T03:42:09.931Z,85.70
2022-11-05T03:44:42.981Z,86.04
2022-11-05T03:47:18.150Z,86.26
2022-11-05T03:49:55.519Z,86.22
2022-11-05T03:52:28.329Z,86.90
2022-11-05T03:54:57.224Z,87.04
2022-11-05T03:57:29.511Z,87.05
2022-11-05T03:59:58.102Z,86.81
2022-11-05T04:02:27.902Z,87.08
2022-11-05T04:04:56.717Z,87.28
2022-11-05T04:07:43.751Z,87.45
2022-11-05T04:10:31.255Z,87.22
2022-11-05T04:13:18.571Z,87.12
2022-11-05T04:16:05.438Z,87.41
2022-11-05T04:18:36.083Z,87.34
2022-11-05T04:21:25.087Z,87.16
2022-11-05T04:24:09.447Z,86.98
2022-11-05T04:26:41.043Z,87.30
2022-11-05T04:29:28.511Z,87.37
2022-11-05T04:31:57.880Z,87.34
2022-11-05T04:34:26.330Z,87.33
2022-11-05T04:36:54.792Z,87.55
2022-11-05T04:39:23.661Z,87.53
2022-11-05T04:41:52.375Z,87.49
2022-11-05T04:44:21.237Z,87.70
2022-11-05T04:46:56.333Z,87.90
2022-11-05T04:49:25.015Z,87.78
2022-11-05T04:51:54.917Z,87.89
2022-11-05T04:54:28.234Z,87.72
2022-11-05T04:56:56.910Z,88.13
2022-11-05T04:59:26.266Z,88.18
2022-11-05T05:01:54.987Z,88.39
2022-11-05T05:04:24.185Z,88.63
2022-11-05T05:06:52.699Z,88.48
2022-11-05T05:09:21.766Z,88.56
2022-11-05T05:11:53.217Z,88.56
2022-11-05T05:14:22.030Z,88.66
2022-11-05T05:16:53.626Z,88.88
2022-11-05T05:19:23.908Z,88.35
2022-11-05T05:21:52.564Z,87.79
2022-11-05T05:24:24.556Z,88.20
2022-11-05T05:26:53.530Z,88.44
2022-11-05T05:29:22.030Z,88.29
2022-11-05T05:31:51.792Z,88.82
2022-11-05T05:34:20.488Z,88.84
2022-11-05T05:36:50.338Z,88.53
2022-11-05T05:39:19.037Z,89.02
2022-11-05T05:41:49.042Z,88.71
2022-11-05T05:44:18.135Z,89.09
2022-11-05T05:46:48.535Z,89.29
2022-11-05T05:49:18.086Z,89.37
2022-11-05T05:51:52.262Z,89.41
2022-11-05T05:54:22.931Z,89.56
2022-11-05T05:56:54.048Z,89.63
2022-11-05T05:59:23.254Z,89.74
2022-11-05T06:01:54.354Z,89.69
2022-11-05T06:04:24.474Z,89.71
2022-11-05T06:06:53.097Z,89.90
2022-11-05T06:09:22.160Z,89.70
2022-11-05T06:11:51.625Z,89.88
2022-11-05T06:14:20.594Z,89.76
2022-11-05T06:16:51.104Z,90.27
2022-11-05T06:19:19.969Z,90.11
2022-11-05T06:21:49.794Z,89.44
2022-11-05T06:24:18.491Z,89.92
2022-11-05T06:26:49.785Z,89.62
2022-11-05T06:29:19.980Z,90.11
2022-11-05T06:31:53.281Z,90.25
2022-11-05T06:34:22.270Z,90.13
2022-11-05T06:36:51.427Z,90.46
2022-11-05T06:39:21.756Z,90.54
2022-11-05T06:42:21.672Z,90.76
2022-11-05T06:44:41.457Z,90.54
2022-11-05T06:47:11.804Z,90.57
2022-11-05T06:49:42.041Z,90.53
2022-11-05T06:52:12.107Z,90.81
2022-11-05T06:54:45.523Z,90.68
2022-11-05T06:57:14.238Z,90.85
2022-11-05T06:59:45.097Z,90.65
2022-11-05T07:02:14.075Z,90.67
2022-11-05T07:04:42.759Z,90.63
2022-11-05T07:07:11.728Z,90.62
2022-11-05T07:09:42.666Z,90.64
2022-11-05T07:12:12.175Z,90.53
2022-11-05T07:14:41.052Z,90.47
2022-11-05T07:17:10.254Z,90.53
2022-11-05T07:19:39.196Z,90.43
2022-11-05T07:22:08.166Z,90.46
2022-11-05T07:24:36.926Z,90.41
2022-11-05T07:27:07.852Z,90.30
2022-11-05T07:29:36.704Z,90.27
2022-11-05T07:32:06.915Z,90.28
2022-11-05T07:34:36.497Z,90.45
2022-11-05T07:37:08.352Z,90.46
2022-11-05T07:39:36.903Z,90.16
2022-11-05T07:42:06.042Z,90.26
2022-11-05T07:44:34.975Z,90.32
2022-11-05T07:47:03.646Z,90.35
2022-11-05T07:49:32.222Z,90.22
2022-11-05T07:52:00.899Z,90.23
2022-11-05T07:54:30.318Z,90.01
2022-11-05T07:57:00.872Z,89.90
2022-11-05T07:59:30.140Z,89.71
2022-11-05T08:01:59.290Z,89.63
2022-11-05T08:04:28.415Z,89.49
2022-11-05T08:06:57.164Z,89.32
2022-11-05T08:09:26.058Z,89.17
2022-11-05T08:12:01.612Z,88.98
2022-11-05T08:14:32.029Z,88.98
2022-11-05T08:17:00.776Z,89.02
2022-11-05T08:19:29.580Z,89.01
2022-11-05T08:21:58.436Z,89.06
2022-11-05T08:24:27.262Z,89.10
2022-11-05T08:26:55.897Z,88.86
2022-11-05T08:29:24.733Z,88.79
2022-11-05T08:31:53.364Z,88.72
2022-11-05T08:34:22.034Z,88.73
2022-11-05T08:36:51.358Z,88.76
2022-11-05T08:39:20.073Z,88.81
2022-11-05T08:41:50.098Z,88.84
2022-11-05T08:44:18.617Z,88.65
2022-11-05T08:46:47.527Z,88.62
2022-11-05T08:49:16.539Z,88.51
2022-11-05T08:51:45.428Z,88.44
2022-11-05T08:54:13.971Z,88.19
2022-11-05T08:56:42.580Z,87.85
2022-11-05T08:59:11.509Z,87.80
2022-11-05T09:01:40.267Z,87.90
2022-11-05T09:04:09.138Z,87.62
2022-11-05T09:06:37.704Z,87.41
2022-11-05T09:09:06.190Z,87.57
2022-11-05T09:12:05.189Z,87.60
2022-11-05T09:14:26.467Z,87.54
2022-11-05T09:16:55.052Z,87.61
2022-11-05T09:19:24.058Z,87.69
2022-11-05T09:21:52.595Z,87.70
2022-11-05T09:24:21.286Z,87.72
2022-11-05T09:26:50.372Z,87.58
2022-11-05T09:29:19.366Z,87.28
2022-11-05T09:31:49.723Z,87.43
2022-11-05T09:34:18.385Z,87.41
2022-11-05T09:36:47.081Z,87.23
2022-11-05T09:39:16.722Z,87.28
2022-11-05T09:41:46.696Z,87.28
2022-11-05T09:44:20.595Z,87.07
2022-11-05T09:46:52.998Z,87.02
2022-11-05T09:49:26.894Z,87.15
2022-11-05T09:51:58.163Z,86.88
2022-11-05T09:54:31.022Z,86.88
2022-11-05T09:57:02.268Z,86.78
2022-11-05T09:59:36.209Z,86.68
2022-11-05T10:02:17.207Z,86.65
2022-11-05T10:04:52.383Z,86.62
2022-11-05T10:07:25.471Z,86.46
2022-11-05T10:09:57.911Z,86.48
2022-11-05T10:12:37.182Z,86.53
2022-11-05T10:15:15.396Z,86.65
2022-11-05T10:17:50.897Z,86.79
2022-11-05T10:20:31.440Z,86.91
2022-11-05T10:23:02.722Z,86.83
2022-11-05T10:25:35.855Z,86.93
2022-11-05T10:28:06.024Z,86.94
2022-11-05T10:30:35.270Z,87.02
2022-11-05T10:33:06.410Z,87.09
2022-11-05T10:35:39.651Z,87.15
2022-11-05T10:38:13.527Z,87.33
2022-11-05T10:40:46.986Z,87.27
2022-11-05T10:43:21.691Z,87.37
2022-11-05T10:45:59.392Z,87.53
2022-11-05T10:48:44.174Z,87.73
2022-11-05T10:51:13.839Z,87.80
2022-11-05T10:53:50.958Z,87.78
2022-11-05T10:56:34.480Z,87.93
2022-11-05T10:59:10.957Z,88.09
2022-11-05T11:01:40.910Z,88.17
2022-11-05T11:04:20.326Z,88.31
2022-11-05T11:06:51.564Z,88.41
2022-11-05T11:09:26.494Z,88.54
2022-11-05T11:12:04.059Z,88.63
2022-11-05T11:14:34.593Z,88.94
2022-11-05T11:17:27.827Z,89.05
2022-11-05T11:20:27.499Z,89.20
2022-11-05T11:23:05.343Z,89.29
2022-11-05T11:25:42.422Z,89.51
2022-11-05T11:28:22.260Z,89.68
2022-11-05T11:30:56.877Z,89.76
2022-11-05T11:33:28.314Z,89.87
2022-11-05T11:35:57.690Z,89.98
2022-11-05T11:38:29.641Z,90.00
2022-11-05T11:41:05.848Z,89.93
2022-11-05T11:43:39.725Z,89.99
2022-11-05T11:46:15.298Z,89.94
2022-11-05T11:48:51.189Z,90.06
2022-11-05T11:51:34.619Z,90.17
2022-11-05T11:54:04.913Z,90.28
2022-11-05T11:56:44.268Z,90.39
2022-11-05T11:59:40.575Z,90.55
2022-11-05T12:02:31.555Z,90.60
2022-11-05T12:05:13.249Z,90.75
2022-11-05T12:07:52.221Z,90.72
2022-11-05T12:10:40.911Z,90.75
2022-11-05T12:13:41.983Z,90.88
2022-11-05T12:16:22.222Z,90.90
2022-11-05T12:19:02.044Z,91.03
2022-11-05T12:21:52.461Z,91.07
2022-11-05T12:24:44.246Z,91.03
2022-11-05T12:27:26.155Z,91.03
2022-11-05T12:30:02.421Z,91.02
2022-11-05T12:32:58.410Z,91.10
2022-11-05T12:35:48.981Z,90.97
2022-11-05T12:38:33.549Z,90.85
2022-11-05T12:41:16.052Z,90.93
2022-11-05T12:43:56.781Z,90.95
2022-11-05T12:46:29.260Z,91.03
2022-11-05T12:49:22.915Z,91.13
2022-11-05T12:52:10.474Z,91.20
2022-11-05T12:54:50.227Z,91.30
2022-11-05T12:57:21.111Z,91.35
2022-11-05T12:59:56.372Z,91.41
2022-11-05T13:02:30.308Z,91.38
2022-11-05T13:05:04.176Z,91.20
2022-11-05T13:07:37.465Z,91.17
2022-11-05T13:10:15.530Z,91.25
2022-11-05T13:12:46.405Z,91.34
2022-11-05T13:15:26.180Z,91.31
2022-11-05T13:17:59.347Z,91.24
2022-11-05T13:20:30.999Z,91.24
2022-11-05T13:23:10.795Z,91.31
2022-11-05T13:25:57.805Z,91.30
2022-11-05T13:28:35.355Z,91.32
2022-11-05T13:31:09.861Z,91.23
2022-11-05T13:33:42.613Z,91.17
2022-11-05T13:36:34.351Z,90.88
2022-11-05T13:39:14.078Z,90.98
2022-11-05T13:41:53.845Z,91.07
2022-11-05T13:44:51.714Z,91.09
2022-11-05T13:47:52.186Z,91.12
2022-11-05T13:50:50.205Z,91.05
2022-11-05T13:53:46.848Z,91.01
2022-11-05T13:56:32.019Z,91.00
2022-11-05T13:59:14.283Z,91.11
2022-11-05T14:01:49.628Z,91.19
2022-11-05T14:04:28.952Z,90.93
2022-11-05T14:07:09.384Z,90.99
2022-11-05T14:09:39.891Z,90.90
2022-11-05T14:12:20.446Z,90.83
2022-11-05T14:14:58.460Z,91.00
2022-11-05T14:17:32.924Z,91.20
2022-11-05T14:20:38.784Z,91.38
2022-11-05T14:23:38.152Z,91.56
2022-11-05T14:26:21.853Z,91.60
2022-11-05T14:29:30.026Z,91.69
2022-11-05T14:32:09.204Z,91.56
2022-11-05T14:34:53.939Z,91.63
2022-11-05T14:37:27.681Z,91.60
2022-11-05T14:40:01.516Z,91.70
2022-11-05T14:42:31.150Z,91.63
2022-11-05T14:45:06.923Z,91.73
2022-11-05T14:47:42.189Z,91.74
2022-11-05T14:50:18.086Z,91.55
2022-11-05T14:52:57.772Z,91.51
2022-11-05T14:55:34.188Z,91.54
2022-11-05T14:58:27.141Z,91.43
2022-11-05T15:00:57.373Z,91.51
2022-11-05T15:03:33.356Z,91.60
2022-11-05T15:06:23.208Z,91.64
2022-11-05T15:09:19.341Z,91.68
2022-11-05T15:12:01.791Z,91.70
2022-11-05T15:14:35.288Z,91.71
2022-11-05T15:17:15.498Z,91.74
2022-11-05T15:19:49.110Z,91.80
2022-11-05T15:22:29.274Z,91.67
2022-11-05T15:24:58.452Z,91.69
2022-11-05T15:28:02.195Z,91.66
2022-11-05T15:30:31.039Z,91.65
2022-11-05T15:33:15.035Z,91.82
2022-11-05T15:35:44.033Z,91.90
2022-11-05T15:38:28.147Z,91.97
2022-11-05T15:41:02.394Z,92.02
2022-11-05T15:43:30.048Z,91.92
2022-11-05T15:46:08.185Z,91.90
2022-11-05T15:48:36.968Z,91.95
2022-11-05T15:51:06.353Z,91.60
2022-11-05T15:54:24.008Z,91.90
2022-11-05T15:56:52.553Z,92.03
2022-11-05T15:59:23.702Z,92.17
2022-11-05T16:01:59.383Z,92.29
2022-11-05T16:04:31.979Z,92.33
2022-11-05T16:07:09.510Z,92.30
2022-11-05T16:09:41.247Z,92.16
2022-11-05T16:12:28.108Z,92.17
2022-11-05T16:15:04.593Z,92.29
2022-11-05T16:17:46.951Z,92.44
2022-11-05T16:20:24.241Z,92.58
2022-11-05T16:22:55.117Z,92.60
2022-11-05T16:25:30.027Z,92.66
2022-11-05T16:27:59.986Z,92.78
2022-11-05T16:30:29.339Z,92.65
2022-11-05T16:33:06.508Z,92.66
2022-11-05T16:35:50.040Z,92.70
2022-11-05T16:38:23.762Z,92.81
2022-11-05T16:40:52.766Z,92.74
2022-11-05T16:43:26.088Z,92.77
2022-11-05T16:45:57.534Z,92.85
2022-11-05T16:48:26.998Z,92.87
2022-11-05T16:50:56.172Z,92.82
2022-11-05T16:53:25.068Z,92.78
2022-11-05T16:55:54.106Z,92.76
2022-11-05T16:58:25.278Z,92.70
2022-11-05T17:01:00.744Z,92.73
2022-11-05T17:03:30.480Z,92.59
2022-11-05T17:06:03.921Z,92.73
2022-11-05T17:08:32.904Z,92.63
2022-11-05T17:11:01.918Z,92.83
2022-11-05T17:13:31.640Z,92.82
2022-11-05T17:16:01.839Z,92.64
2022-11-05T17:18:30.663Z,92.50
2022-11-05T17:20:59.235Z,92.59
2022-11-05T17:23:29.328Z,92.63
2022-11-05T17:26:02.138Z,92.70
2022-11-05T17:28:32.544Z,92.93
2022-11-05T17:31:02.933Z,92.50
2022-11-05T17:33:32.265Z,92.47
2022-11-05T17:36:05.034Z,92.79
2022-11-05T17:38:34.067Z,92.78
2022-11-05T17:41:09.580Z,92.50
2022-11-05T17:43:38.482Z,92.83
2022-11-05T17:46:09.318Z,92.75
2022-11-05T17:48:38.669Z,93.00
2022-11-05T17:51:10.579Z,93.22
2022-11-05T17:53:39.590Z,93.50
2022-11-05T17:56:10.284Z,93.29
2022-11-05T17:58:40.011Z,93.37
2022-11-05T18:01:23.520Z,93.33
2022-11-05T18:03:53.953Z,93.00
2022-11-05T18:06:22.737Z,93.03
2022-11-05T18:08:51.795Z,93.36
2022-11-05T18:11:20.606Z,93.17
2022-11-05T18:13:49.681Z,93.12
2022-11-05T18:16:18.419Z,92.91
2022-11-05T18:18:50.813Z,93.14
2022-11-05T18:21:19.395Z,92.61
2022-11-05T18:23:52.615Z,92.95
2022-11-05T18:26:21.201Z,92.79
2022-11-05T18:28:52.143Z,92.60
2022-11-05T18:31:21.662Z,92.61
2022-11-05T18:33:56.720Z,92.27
2022-11-05T18:36:27.118Z,92.00
2022-11-05T18:38:57.891Z,91.88
2022-11-05T18:41:26.438Z,91.86
2022-11-05T18:43:59.282Z,91.90
2022-11-05T18:46:55.789Z,91.86
2022-11-05T18:49:17.682Z,91.83
2022-11-05T18:51:49.743Z,91.92
2022-11-05T18:54:18.300Z,91.91
2022-11-05T18:56:47.225Z,91.86
2022-11-05T19:02:08.792Z,92.18
2022-11-05T19:04:38.613Z,91.96
2022-11-05T19:07:08.835Z,91.93
2022-11-05T19:09:38.861Z,91.97
2022-11-05T19:12:07.916Z,92.03
2022-11-05T19:14:36.914Z,92.19
2022-11-05T19:17:05.638Z,92.09
2022-11-05T19:19:34.690Z,92.07
2022-11-05T19:22:03.455Z,92.24
2022-11-05T19:24:32.048Z,92.32
2022-11-05T19:27:00.558Z,92.29
2022-11-05T19:29:29.353Z,92.38
2022-11-05T19:32:00.014Z,92.29
2022-11-05T19:34:28.824Z,92.50
2022-11-05T19:37:00.217Z,92.34
2022-11-05T19:39:29.524Z,92.41
2022-11-05T19:42:03.694Z,92.60
2022-11-05T19:44:33.348Z,92.54
2022-11-05T19:47:02.337Z,92.59
2022-11-05T19:49:38.024Z,92.42
2022-11-05T19:52:06.851Z,92.64
2022-11-05T19:54:35.689Z,92.68
2022-11-05T19:57:05.825Z,92.85
2022-11-05T19:59:37.521Z,92.66
2022-11-05T20:02:09.366Z,92.89
2022-11-05T20:04:40.892Z,92.68
2022-11-05T20:07:09.966Z,93.05
2022-11-05T20:09:41.650Z,93.03
2022-11-05T20:12:10.229Z,93.07
2022-11-05T20:14:38.984Z,93.02
2022-11-05T20:17:07.694Z,92.73
2022-11-05T20:19:36.495Z,92.92
2022-11-05T20:22:05.120Z,93.02
2022-11-05T20:24:37.977Z,93.12
2022-11-05T20:27:06.569Z,93.12
2022-11-05T20:29:35.972Z,93.42
2022-11-05T20:32:06.070Z,93.37
2022-11-05T20:34:35.397Z,93.34
2022-11-05T20:37:04.027Z,93.19
2022-11-05T20:39:33.042Z,93.29
2022-11-05T20:42:01.644Z,93.50
2022-11-05T20:44:30.219Z,93.49
2022-11-05T20:46:59.825Z,93.50
2022-11-05T20:49:28.626Z,93.46
2022-11-05T20:51:57.246Z,93.44
2022-11-05T20:54:26.141Z,93.56
2022-11-05T20:56:54.589Z,93.60
2022-11-05T20:59:23.655Z,93.71
2022-11-05T21:01:52.755Z,93.68
2022-11-05T21:04:21.577Z,93.71
2022-11-05T21:06:52.824Z,93.76
2022-11-05T21:09:21.418Z,93.76
2022-11-05T21:12:09.355Z,93.79
2022-11-05T21:14:38.453Z,93.83
2022-11-05T21:17:09.427Z,93.78
2022-11-05T21:19:38.477Z,93.65
2022-11-05T21:22:07.468Z,93.61
2022-11-05T21:24:38.169Z,93.72
2022-11-05T21:27:06.857Z,93.71
2022-11-05T21:29:36.631Z,93.79
2022-11-05T21:32:05.634Z,93.82
2022-11-05T21:34:37.026Z,93.84
2022-11-05T21:37:05.819Z,93.85
2022-11-05T21:39:34.499Z,93.87
2022-11-05T21:42:03.230Z,93.90
2022-11-05T21:44:31.827Z,93.61
2022-11-05T21:47:00.616Z,93.69
2022-11-05T21:49:29.244Z,93.68
2022-11-05T21:52:18.952Z,93.62
2022-11-05T21:55:05.274Z,93.76
2022-11-05T21:57:53.368Z,93.83
2022-11-05T22:00:23.425Z,93.86
2022-11-05T22:02:54.837Z,93.87
2022-11-05T22:05:24.140Z,93.90
2022-11-05T22:07:53.097Z,93.85
2022-11-05T22:10:22.083Z,93.86
2022-11-05T22:12:51.648Z,93.85
2022-11-05T22:15:20.614Z,93.80
2022-11-05T22:17:51.723Z,93.81
2022-11-05T22:20:20.453Z,93.70
2022-11-05T22:22:49.854Z,93.69
2022-11-05T22:25:18.604Z,93.72
2022-11-05T22:27:47.254Z,93.69
2022-11-05T22:30:16.728Z,93.66
2022-11-05T22:32:45.728Z,93.73
2022-11-05T22:35:14.292Z,93.70
2022-11-05T22:37:42.857Z,93.69
2022-11-05T22:40:12.453Z,93.54
2022-11-05T22:42:41.171Z,93.69
2022-11-05T22:45:10.904Z,93.60
2022-11-05T22:47:41.997Z,93.64
2022-11-05T22:50:10.975Z,93.56
2022-11-05T22:52:39.538Z,93.60
2022-11-05T22:55:09.547Z,93.57
2022-11-05T22:57:38.231Z,93.52
2022-11-05T23:00:16.720Z,93.51
2022-11-05T23:02:46.996Z,93.53
2022-11-05T23:05:17.675Z,93.51
2022-11-05T23:08:04.540Z,93.59
2022-11-05T23:10:51.866Z,93.65
2022-11-05T23:13:20.636Z,93.58
2022-11-05T23:16:10.213Z,93.66
2022-11-05T23:18:57.110Z,93.48
2022-11-05T23:21:43.988Z,93.49
2022-11-05T23:24:12.970Z,93.45
2022-11-05T23:26:50.691Z,93.45
2022-11-05T23:29:20.078Z,93.44
2022-11-05T23:32:16.386Z,93.43
2022-11-05T23:34:44.971Z,93.44
2022-11-05T23:37:32.047Z,93.46
2022-11-05T23:40:00.762Z,93.42
2022-11-05T23:42:49.023Z,93.38
2022-11-05T23:45:51.078Z,93.35
2022-11-05T23:48:25.782Z,93.48
2022-11-05T23:51:00.608Z,93.51
2022-11-05T23:53:30.943Z,93.53
2022-11-05T23:56:04.983Z,93.53
2022-11-05T23:58:34.260Z,93.50
